sensor_id;sensor_type;location;lat;lon;timestamp;temperature;humidity
1297;DHT22;641;48.492;9.184;2023-05-02T00:00:12;10.90;99.90
1297;DHT22;641;48.492;9.184;2023-05-02T00:02:38;10.90;99.90
1297;DHT22;641;48.492;9.184;2023-05-02T00:05:05;10.90;99.90
1297;DHT22;641;48.492;9.184;2023-05-02T00:07:31;10.80;99.90
1297;DHT22;641;48.492;9.184;2023-05-02T00:09:57;10.70;99.90
1297;DHT22;641;48.492;9.184;2023-05-02T00:12:22;10.80;99.90
1297;DHT22;641;48.492;9.184;2023-05-02T00:14:48;10.80;99.90
1297;DHT22;641;48.492;9.184;2023-05-02T00:17:17;10.70;99.90
1297;DHT22;641;48.492;9.184;2023-05-02T00:19:43;10.60;99.90
1297;DHT22;641;48.492;9.184;2023-05-02T00:22:09;10.60;99.90
1297;DHT22;641;48.492;9.184;2023-05-02T00:24:35;10.60;99.90
1297;DHT22;641;48.492;9.184;2023-05-02T00:27:00;10.40;99.90
1297;DHT22;641;48.492;9.184;2023-05-02T00:29:26;10.40;99.90
1297;DHT22;641;48.492;9.184;2023-05-02T00:31:52;10.40;99.90
1297;DHT22;641;48.492;9.184;2023-05-02T00:34:18;10.30;99.90
1297;DHT22;641;48.492;9.184;2023-05-02T00:36:43;10.20;99.90
1297;DHT22;641;48.492;9.184;2023-05-02T00:39:09;10.20;99.90
1297;DHT22;641;48.492;9.184;2023-05-02T00:41:35;10.50;99.90
1297;DHT22;641;48.492;9.184;2023-05-02T00:44:00;10.50;99.90
1297;DHT22;641;48.492;9.184;2023-05-02T00:46:26;10.50;99.90
1297;DHT22;641;48.492;9.184;2023-05-02T00:48:52;10.30;99.90
1297;DHT22;641;48.492;9.184;2023-05-02T00:51:17;10.40;99.90
1297;DHT22;641;48.492;9.184;2023-05-02T00:53:44;10.50;99.90
1297;DHT22;641;48.492;9.184;2023-05-02T00:56:10;10.60;99.90
1297;DHT22;641;48.492;9.184;2023-05-02T00:58:37;10.50;99.90
1297;DHT22;641;48.492;9.184;2023-05-02T01:01:32;10.30;99.90
1297;DHT22;641;48.492;9.184;2023-05-02T01:12:03;10.50;99.90
1297;DHT22;641;48.492;9.184;2023-05-02T01:14:34;10.70;99.90
1297;DHT22;641;48.492;9.184;2023-05-02T01:17:02;10.50;99.90
1297;DHT22;641;48.492;9.184;2023-05-02T01:19:35;10.60;99.90
1297;DHT22;641;48.492;9.184;2023-05-02T01:22:06;10.40;99.90
1297;DHT22;641;48.492;9.184;2023-05-02T01:24:51;10.30;99.90
1297;DHT22;641;48.492;9.184;2023-05-02T01:30:18;10.30;99.90
1297;DHT22;641;48.492;9.184;2023-05-02T01:32:45;10.40;99.90
1297;DHT22;641;48.492;9.184;2023-05-02T01:35:15;10.40;99.90
1297;DHT22;641;48.492;9.184;2023-05-02T01:37:43;10.60;99.90
1297;DHT22;641;48.492;9.184;2023-05-02T01:40:10;10.70;99.90
1297;DHT22;641;48.492;9.184;2023-05-02T01:42:38;10.60;99.90
1297;DHT22;641;48.492;9.184;2023-05-02T01:45:06;10.70;99.90
1297;DHT22;641;48.492;9.184;2023-05-02T01:47:34;10.70;99.90
1297;DHT22;641;48.492;9.184;2023-05-02T01:50:02;10.70;99.90
1297;DHT22;641;48.492;9.184;2023-05-02T01:52:30;10.70;99.90
1297;DHT22;641;48.492;9.184;2023-05-02T01:54:59;10.70;99.90
1297;DHT22;641;48.492;9.184;2023-05-02T01:57:26;10.70;99.90
1297;DHT22;641;48.492;9.184;2023-05-02T01:59:54;10.80;99.90
1297;DHT22;641;48.492;9.184;2023-05-02T02:02:23;10.60;99.90
1297;DHT22;641;48.492;9.184;2023-05-02T02:04:50;10.70;99.90
1297;DHT22;641;48.492;9.184;2023-05-02T02:07:16;10.50;99.90
1297;DHT22;641;48.492;9.184;2023-05-02T02:09:42;10.50;99.90
1297;DHT22;641;48.492;9.184;2023-05-02T02:12:16;10.30;99.90
1297;DHT22;641;48.492;9.184;2023-05-02T02:14:56;10.20;99.90
1297;DHT22;641;48.492;9.184;2023-05-02T02:17:35;10.20;99.90
1297;DHT22;641;48.492;9.184;2023-05-02T02:20:05;10.20;99.90
1297;DHT22;641;48.492;9.184;2023-05-02T02:22:37;10.20;99.90
1297;DHT22;641;48.492;9.184;2023-05-02T02:25:09;10.20;99.90
1297;DHT22;641;48.492;9.184;2023-05-02T02:27:37;10.00;99.90
1297;DHT22;641;48.492;9.184;2023-05-02T02:30:03;10.10;99.90
1297;DHT22;641;48.492;9.184;2023-05-02T02:32:30;9.70;99.90
1297;DHT22;641;48.492;9.184;2023-05-02T02:34:55;9.70;99.90
1297;DHT22;641;48.492;9.184;2023-05-02T02:37:34;9.90;99.90
1297;DHT22;641;48.492;9.184;2023-05-02T02:45:29;9.70;99.90
1297;DHT22;641;48.492;9.184;2023-05-02T02:48:24;9.50;99.90
1297;DHT22;641;48.492;9.184;2023-05-02T02:51:01;9.50;99.90
1297;DHT22;641;48.492;9.184;2023-05-02T02:53:46;9.40;99.90
1297;DHT22;641;48.492;9.184;2023-05-02T02:56:21;9.90;99.90
1297;DHT22;641;48.492;9.184;2023-05-02T02:59:04;9.70;99.90
1297;DHT22;641;48.492;9.184;2023-05-02T03:01:31;9.40;99.90
1297;DHT22;641;48.492;9.184;2023-05-02T03:03:57;9.50;99.90
1297;DHT22;641;48.492;9.184;2023-05-02T03:06:23;9.40;99.90
1297;DHT22;641;48.492;9.184;2023-05-02T03:08:49;9.40;99.90
1297;DHT22;641;48.492;9.184;2023-05-02T03:11:15;9.10;99.90
1297;DHT22;641;48.492;9.184;2023-05-02T03:13:41;9.40;99.90
1297;DHT22;641;48.492;9.184;2023-05-02T03:16:29;9.20;99.90
1297;DHT22;641;48.492;9.184;2023-05-02T03:18:57;9.00;99.90
1297;DHT22;641;48.492;9.184;2023-05-02T03:21:22;9.00;99.90
1297;DHT22;641;48.492;9.184;2023-05-02T03:23:48;9.00;99.90
1297;DHT22;641;48.492;9.184;2023-05-02T03:26:13;9.10;99.90
1297;DHT22;641;48.492;9.184;2023-05-02T03:28:39;9.00;99.90
1297;DHT22;641;48.492;9.184;2023-05-02T03:31:05;9.20;99.90
1297;DHT22;641;48.492;9.184;2023-05-02T03:33:30;9.40;99.90
1297;DHT22;641;48.492;9.184;2023-05-02T03:35:57;9.40;99.90
1297;DHT22;641;48.492;9.184;2023-05-02T03:38:22;9.50;99.90
1297;DHT22;641;48.492;9.184;2023-05-02T03:40:48;9.60;99.90
1297;DHT22;641;48.492;9.184;2023-05-02T03:43:13;9.50;99.90
1297;DHT22;641;48.492;9.184;2023-05-02T03:45:39;9.50;99.90
1297;DHT22;641;48.492;9.184;2023-05-02T03:48:05;9.40;99.90
1297;DHT22;641;48.492;9.184;2023-05-02T03:50:30;9.40;99.90
1297;DHT22;641;48.492;9.184;2023-05-02T03:52:56;9.40;99.90
1297;DHT22;641;48.492;9.184;2023-05-02T03:55:22;9.30;99.90
1297;DHT22;641;48.492;9.184;2023-05-02T03:57:47;9.20;99.90
1297;DHT22;641;48.492;9.184;2023-05-02T04:00:13;9.10;99.90
1297;DHT22;641;48.492;9.184;2023-05-02T04:02:39;9.20;99.90
1297;DHT22;641;48.492;9.184;2023-05-02T04:05:04;9.50;99.90
1297;DHT22;641;48.492;9.184;2023-05-02T04:07:30;9.60;99.90
1297;DHT22;641;48.492;9.184;2023-05-02T04:09:56;9.80;99.90
1297;DHT22;641;48.492;9.184;2023-05-02T04:12:21;9.80;99.90
1297;DHT22;641;48.492;9.184;2023-05-02T04:14:47;9.90;99.90
1297;DHT22;641;48.492;9.184;2023-05-02T04:17:13;10.00;99.90
1297;DHT22;641;48.492;9.184;2023-05-02T04:19:39;10.00;99.90
1297;DHT22;641;48.492;9.184;2023-05-02T04:22:05;10.00;99.90
1297;DHT22;641;48.492;9.184;2023-05-02T04:24:31;10.10;99.90
1297;DHT22;641;48.492;9.184;2023-05-02T04:26:56;10.10;99.90
1297;DHT22;641;48.492;9.184;2023-05-02T04:29:22;10.00;99.90
1297;DHT22;641;48.492;9.184;2023-05-02T04:31:47;10.00;99.90
1297;DHT22;641;48.492;9.184;2023-05-02T04:34:15;10.00;99.90
1297;DHT22;641;48.492;9.184;2023-05-02T04:36:40;10.00;99.90
1297;DHT22;641;48.492;9.184;2023-05-02T04:39:06;10.10;99.90
1297;DHT22;641;48.492;9.184;2023-05-02T04:41:32;10.10;99.90
1297;DHT22;641;48.492;9.184;2023-05-02T04:43:58;10.30;99.90
1297;DHT22;641;48.492;9.184;2023-05-02T04:46:23;10.20;99.90
1297;DHT22;641;48.492;9.184;2023-05-02T04:48:49;10.30;99.90
1297;DHT22;641;48.492;9.184;2023-05-02T04:51:15;10.30;99.90
1297;DHT22;641;48.492;9.184;2023-05-02T04:53:40;10.60;99.90
1297;DHT22;641;48.492;9.184;2023-05-02T04:56:06;10.50;99.90
1297;DHT22;641;48.492;9.184;2023-05-02T04:58:32;10.50;99.90
1297;DHT22;641;48.492;9.184;2023-05-02T05:00:59;10.60;99.90
1297;DHT22;641;48.492;9.184;2023-05-02T05:03:25;10.50;99.90
1297;DHT22;641;48.492;9.184;2023-05-02T05:05:52;10.70;99.90
1297;DHT22;641;48.492;9.184;2023-05-02T05:08:17;10.70;99.90
1297;DHT22;641;48.492;9.184;2023-05-02T05:10:43;10.70;99.90
1297;DHT22;641;48.492;9.184;2023-05-02T05:13:09;10.70;99.90
1297;DHT22;641;48.492;9.184;2023-05-02T05:15:36;10.60;99.90
1297;DHT22;641;48.492;9.184;2023-05-02T05:18:02;10.80;99.90
1297;DHT22;641;48.492;9.184;2023-05-02T05:20:28;10.90;99.90
1297;DHT22;641;48.492;9.184;2023-05-02T05:22:54;10.90;99.90
1297;DHT22;641;48.492;9.184;2023-05-02T05:25:20;10.80;99.90
1297;DHT22;641;48.492;9.184;2023-05-02T05:27:45;10.80;99.90
1297;DHT22;641;48.492;9.184;2023-05-02T05:30:11;10.90;99.90
1297;DHT22;641;48.492;9.184;2023-05-02T05:32:36;11.00;99.90
1297;DHT22;641;48.492;9.184;2023-05-02T05:35:02;11.10;99.90
1297;DHT22;641;48.492;9.184;2023-05-02T05:37:29;11.20;99.90
1297;DHT22;641;48.492;9.184;2023-05-02T05:39:54;11.30;99.90
1297;DHT22;641;48.492;9.184;2023-05-02T05:42:20;11.40;99.90
1297;DHT22;641;48.492;9.184;2023-05-02T05:44:45;11.50;99.90
1297;DHT22;641;48.492;9.184;2023-05-02T05:47:11;11.70;99.90
1297;DHT22;641;48.492;9.184;2023-05-02T05:49:37;11.70;99.90
1297;DHT22;641;48.492;9.184;2023-05-02T05:52:02;11.70;99.90
1297;DHT22;641;48.492;9.184;2023-05-02T05:54:28;11.80;99.90
1297;DHT22;641;48.492;9.184;2023-05-02T05:56:54;11.60;99.90
1297;DHT22;641;48.492;9.184;2023-05-02T05:59:19;11.70;99.90
1297;DHT22;641;48.492;9.184;2023-05-02T06:01:45;11.80;99.90
1297;DHT22;641;48.492;9.184;2023-05-02T06:04:10;11.60;99.90
1297;DHT22;641;48.492;9.184;2023-05-02T06:06:36;11.70;99.90
1297;DHT22;641;48.492;9.184;2023-05-02T06:09:02;11.40;99.90
1297;DHT22;641;48.492;9.184;2023-05-02T06:11:28;11.10;99.90
1297;DHT22;641;48.492;9.184;2023-05-02T06:13:54;10.90;99.90
1297;DHT22;641;48.492;9.184;2023-05-02T06:16:20;10.70;99.90
1297;DHT22;641;48.492;9.184;2023-05-02T06:18:46;11.10;99.90
1297;DHT22;641;48.492;9.184;2023-05-02T06:21:12;11.40;99.90
1297;DHT22;641;48.492;9.184;2023-05-02T06:23:37;11.60;99.90
1297;DHT22;641;48.492;9.184;2023-05-02T06:26:04;11.50;99.90
1297;DHT22;641;48.492;9.184;2023-05-02T06:28:30;11.50;99.90
1297;DHT22;641;48.492;9.184;2023-05-02T06:31:01;11.50;99.90
1297;DHT22;641;48.492;9.184;2023-05-02T06:33:27;11.60;99.90
1297;DHT22;641;48.492;9.184;2023-05-02T06:35:53;12.10;99.90
1297;DHT22;641;48.492;9.184;2023-05-02T06:38:19;12.00;99.90
1297;DHT22;641;48.492;9.184;2023-05-02T06:40:45;11.90;99.90
1297;DHT22;641;48.492;9.184;2023-05-02T06:43:11;12.00;99.90
1297;DHT22;641;48.492;9.184;2023-05-02T06:45:37;12.00;99.90
1297;DHT22;641;48.492;9.184;2023-05-02T06:48:03;12.20;99.90
1297;DHT22;641;48.492;9.184;2023-05-02T06:50:29;12.10;99.90
1297;DHT22;641;48.492;9.184;2023-05-02T06:52:54;12.10;99.90
1297;DHT22;641;48.492;9.184;2023-05-02T06:55:20;11.60;99.90
1297;DHT22;641;48.492;9.184;2023-05-02T06:57:47;11.60;99.90
1297;DHT22;641;48.492;9.184;2023-05-02T07:00:14;11.90;99.90
1297;DHT22;641;48.492;9.184;2023-05-02T07:02:41;12.20;99.90
1297;DHT22;641;48.492;9.184;2023-05-02T07:05:06;12.60;99.90
1297;DHT22;641;48.492;9.184;2023-05-02T07:07:32;11.90;99.90
1297;DHT22;641;48.492;9.184;2023-05-02T07:09:57;11.50;99.90
1297;DHT22;641;48.492;9.184;2023-05-02T07:12:24;11.60;99.90
1297;DHT22;641;48.492;9.184;2023-05-02T07:14:49;11.50;99.90
1297;DHT22;641;48.492;9.184;2023-05-02T07:17:15;11.60;99.90
1297;DHT22;641;48.492;9.184;2023-05-02T07:19:41;11.80;99.90
1297;DHT22;641;48.492;9.184;2023-05-02T07:22:06;11.90;99.90
1297;DHT22;641;48.492;9.184;2023-05-02T07:24:32;11.90;99.90
1297;DHT22;641;48.492;9.184;2023-05-02T07:26:57;12.00;99.90
